• Join FlightAware (Why Join?)
  • Login
  • US Flag 
04:56AM EDT


 

Airport Tracker/Info


-or-


 

Live Flight TrackerFlight Track Log ✈ GGN7281 ✈ 29-Apr-2013 ✈ KROC - CYYZ

Flight Track Log - Related Links

Times and Time Zones

All times are in EDT time to prevent confusion due to time zone crossing. See the GGN7281 flight status page for this flight to view local times or setup timezone preferences in your user account.

Time Position Orientation Groundspeed Altitude Reporting Facility
EDT Latitude Longitude Course Direction KTS MPH feet Rate Location/Type
05:45PM 43.1239 -77.7531 274° West 173 199 3,400  Level Cleveland Center
05:46PM 43.1281 -77.8439 274° West 205 236 3,100 120 Descending Cleveland Center
05:47PM 43.1386 -77.9372 279° West 228 262 3,700 1,200 Climbing Cleveland Center
05:48PM 43.1508 -78.0164 282° West 235 270 5,600 2,280 Climbing Cleveland Center
05:49PM 43.1583 -78.0814 279° West 209 241 8,300 2,460 Climbing Cleveland Center
05:50PM 43.1681 -78.1467 282° West 188 216 10,600 1,320 Climbing Cleveland Center
05:51PM 43.1781 -78.2258 280° West 188 216 11,000 180 Climbing Cleveland Center
05:52PM 43.1906 -78.3222 280° West 226 260 11,000  Level Cleveland Center
05:53PM 43.2028 -78.4186 280° West 251 289 11,000  Level Cleveland Center
05:54PM 43.2128 -78.5125 278° West 257 296 11,000  Level Cleveland Center
05:55PM 43.2228 -78.6061 278° West 257 296 11,000  Level Cleveland Center
05:56PM 43.2347 -78.7025 280° West 257 296 11,000  Level Cleveland Center
05:57PM 43.2447 -78.7992 278° West 257 296 11,000 -300 Level Cleveland Center
05:58PM 43.2564 -78.8928 280° West 257 296 10,400 -1,140 Descending Cleveland Center
05:59PM 43.2500 -78.9500 261° West 270 311 9,300 -960 Descending Toronto Center
06:00PM 43.2667 -79.0333 285° West 260 299 9,000 -180 Descending Toronto Center
06:01PM 43.2667 -79.1333 270° West 250 288 9,000  Level Toronto Center
06:02PM 43.2833 -79.2167 285° West 250 288 9,000 -360 Level Toronto Center
06:03PM 43.3000 -79.3167 283° West 250 288 8,300 -540 Descending Toronto Center
06:04PM 43.3500 -79.3833 316° Northwest 260 299 8,000 -120 Descending Toronto Center
06:06PM 43.4375 -79.4375 324° Northwest  Level FlightAware Approximate
06:06PM 43.4833 -79.3833 324° Northwest 260 299 8,000  Level Toronto Center
06:07PM 43.5500 -79.3833 360° North 250 288 8,000  Level Toronto Center
06:08PM 43.6000 -79.4500 316° Northwest 240 276 8,000 -600 Level Toronto Center
06:09PM 43.5833 -79.5167 251° West 210 242 6,900 -1,500 Descending Toronto Center
06:10PM 43.5500 -79.5833 235° Southwest 190 219 5,100 -1,740 Descending Toronto Center
06:11PM 43.5167 -79.6333 227° Southwest 190 219 3,500 -1,080 Descending Toronto Center
06:12PM 43.4833 -79.7000 235° Southwest 190 219 3,000 -300 Descending Toronto Center
06:13PM 43.5000 -79.7667 289° West 200 230 3,000  Level Toronto Center
06:14PM 43.5500 -79.7500 14° North 210 242 3,000 -420 Level Toronto Center
06:15PM 43.6000 -79.6833 44° Northeast 190 219 2,200 -900 Descending Toronto Center
06:16PM 43.6167 -79.6333 65° Northeast 170 196 1,300 -900 Descending Toronto Center
06:17PM 43.6500 -79.6167 20° North 130 150 500 -420 Descending Toronto Center
06:18PM 43.6667 -79.5833 55° Northeast 40 46 500  Level Toronto Center